Plesetsk, Russia
Current Conditions -  °F | °C
As of 2:30 PM on Monday 22 Dec 2014 (Local Time) from ULAA Reporting Station
Light Snow Light Snow  
Wind Chill: 25°   Ceiling: 700
Heat Index: 25°   Visibility: 4mi
Dew Point: 25°   Wind: 2mph
Humidity: 100%   Direction: 200°SSW
Pressure: 29.12"   Gusts: NA
Location:  62.72°N, 40.28°E
Report Text: ULAA 221130Z 20001MPS 7000 -SN BKN007 OVC015 M04/M04 Q0986 08590539 BECMG 3000 -SN BR BKN005 RMK QFE738/0985
Loading
Personal Weather Stations






























Interactive Weather Map New forecast layout! Learn more

10-Day Weather Forecast

Advertisements
Track Severe Weather on mobile